Buoy 46563

sailwx.info

Track history (hours):
 
Tides and Currents Weather Stations Pressure Air Temp Water Temp Dewpoint Dewpoint Depression Visibility Wind Speed Wind Dir Waves Ship Positions

Drifting buoy 46563

Last reported at 2015-Mar-05 13:00 UTC. Time now 2015-Mar-05 14:41 UTC.
Position N 21°59' W 130°18'.

Water temperature 21.9 ° C

Date/timePositionNaut miles runAvg speedWind from/ knotsBaromVisibWave heightAir tempDewpointWater temp
2015-Mar-05 13:00N 21°59' W 130°18'2 0.5 21.9
2015-Mar-05 10:00N 21°58' W 130°17'1 0.2 21.9
2015-Mar-05 06:00N 21°57' W 130°18'0 0.2 22.0
2015-Mar-05 05:00N 21°57' W 130°18'1 1.0 22.0
2015-Mar-05 04:00N 21°57' W 130°17'1 0.3 22.1
2015-Mar-05 02:00N 21°56' W 130°17'1 0.6 22.1
2015-Mar-05 00:00N 21°55' W 130°17'0 0.0 22.2
2015-Mar-04 23:00N 21°55' W 130°17'0 0.0 22.2
2015-Mar-04 22:00N 21°55' W 130°17'1 0.3 22.2
2015-Mar-04 19:00N 21°55' W 130°16'0 0.3 22.1
2015-Mar-04 18:00N 21°55' W 130°16'0 0.0 22.1
2015-Mar-04 17:00N 21°55' W 130°16'1 0.3 22.1
2015-Mar-04 14:00N 21°56' W 130°15'0 0.0 22.1
2015-Mar-04 12:00N 21°56' W 130°15'0 0.1 22.1
2015-Mar-04 11:00N 21°55' W 130°15'1 0.7 22.1
2015-Mar-04 09:00N 21°55' W 130°14'0 0.1 22.1
2015-Mar-04 06:00N 21°55' W 130°14'0 0.3 22.1
2015-Mar-04 05:00N 21°55' W 130°14'0 0.0 22.2
2015-Mar-04 03:00N 21°55' W 130°14'0 0.0 22.2
2015-Mar-04 02:00N 21°55' W 130°14'0 0.5 22.2
2015-Mar-04 01:00N 21°55' W 130°14'0 0.4 22.2
2015-Mar-04 00:00N 21°56' W 130°15'0 0.1 22.2
2015-Mar-03 22:00N 21°55' W 130°15'1 0.2 22.2
2015-Mar-03 19:00N 21°55' W 130°14'0 0.1 22.2
2015-Mar-03 18:00N 21°55' W 130°14'0 0.0 22.2
2015-Mar-03 17:00N 21°55' W 130°14'1 0.5 22.2
2015-Mar-03 15:00N 21°55' W 130°13'0 0.3 22.2
2015-Mar-03 14:00N 21°55' W 130°13'0 0.0 22.2
2015-Mar-03 13:00N 21°55' W 130°13'0 0.0 22.2
2015-Mar-03 12:00N 21°55' W 130°13'1 0.9 22.2
2015-Mar-03 11:00N 21°55' W 130°12'0 0.0 22.2
2015-Mar-03 09:00N 21°55' W 130°12'0 0.0 22.2
2015-Mar-03 06:00N 21°55' W 130°12'1 0.7 22.2
2015-Mar-03 05:00N 21°55' W 130°11'0 0.2 22.2
2015-Mar-03 03:00N 21°56' W 130°11'1 0.3 22.2
2015-Mar-03 01:00N 21°56' W 130°12'0 0.1 22.1
2015-Mar-03 00:00N 21°56' W 130°12'0 0.0 22.1
2015-Mar-02 23:00N 21°56' W 130°12'0 0.0 22.1
2015-Mar-02 22:00N 21°56' W 130°12'1 0.2 22.1
2015-Mar-02 19:00N 21°55' W 130°13'0 0.0 22.1
2015-Mar-02 18:00N 21°55' W 130°13'2 1.9 22.1
2015-Mar-02 17:00N 21°54' W 130°11'0 0.0 22.1
2015-Mar-02 15:00N 21°54' W 130°11'1 0.9 22.0
2015-Mar-02 14:00N 21°53' W 130°11'1 1.0 22.1
2015-Mar-02 13:00N 21°53' W 130°09'1 0.6 22.1
2015-Mar-02 11:00N 21°52' W 130°09'1 0.7 22.1
2015-Mar-02 10:00N 21°52' W 130°09'1 0.7 22.1
2015-Mar-02 09:00N 21°52' W 130°09'1 0.4 22.1
2015-Mar-02 05:00N 21°51' W 130°07'1 0.5 22.1
2015-Mar-02 04:00N 21°51' W 130°07'1 1.1 22.1
2015-Mar-02 03:00N 21°51' W 130°06'1 0.4 22.1
2015-Mar-02 00:00N 21°51' W 130°05'1 1.3 22.1
2015-Mar-01 23:00N 21°51' W 130°03'1 0.4 22.1
2015-Mar-01 21:00N 21°51' W 130°02'0 0.0 22.1
2015-Mar-01 20:00N 21°51' W 130°02'1 0.7 22.1
2015-Mar-01 18:00N 21°52' W 130°01'1 0.6 22.0
2015-Mar-01 16:00N 21°52' W 129°60'0 0.0 22.0
2015-Mar-01 15:45N 21°52' W 129°60'0 0.1 22.0
2015-Mar-01 14:00N 21°52' W 129°60'1 0.5 22.0
2015-Mar-01 13:00N 21°52' W 129°59'2 0.5 22.0
2015-Mar-01 09:00N 21°52' W 129°57'0 0.0 22.0
2015-Mar-01 06:00N 21°52' W 129°57'2 0.3 22.0
2015-Mar-01 00:00N 21°52' W 129°55'1 1.3 22.1
2015-Feb-28 23:00N 21°52' W 129°54'0 0.0 22.1
2015-Feb-28 21:00N 21°52' W 129°54'1 0.9 22.0
2015-Feb-28 20:00N 21°52' W 129°53'0 0.1 22.0
2015-Feb-28 19:00N 21°52' W 129°53'1 0.3 21.8
2015-Feb-28 17:00N 21°53' W 129°52'2 0.6 21.8
2015-Feb-28 14:00N 21°53' W 129°51'1 0.3 21.8
2015-Feb-28 10:00N 21°53' W 129°49'1 0.3 21.8
2015-Feb-28 06:00N 21°54' W 129°48'0 0.5 21.8
2015-Feb-28 05:00N 21°54' W 129°48'1 0.5 21.8
2015-Feb-28 04:00N 21°54' W 129°47'2 0.3 21.8
2015-Feb-27 23:00N 21°55' W 129°46'1 0.2 21.8
2015-Feb-27 18:00N 21°56' W 129°45'0 0.0 21.7
2015-Feb-27 17:00N 21°56' W 129°45'1 0.5 21.8
2015-Feb-27 15:00N 21°57' W 129°44'0 0.4 21.7
2015-Feb-27 14:00N 21°57' W 129°44'0 0.3 21.7
2015-Feb-27 13:00N 21°57' W 129°44'1 0.7 21.7
2015-Feb-27 12:00N 21°57' W 129°43'2 0.8 21.7
2015-Feb-27 10:00N 21°57' W 129°42'0 0.0 21.8
2015-Feb-27 07:00N 21°57' W 129°42'0 0.1 21.8
2015-Feb-27 06:00N 21°57' W 129°42'1 1.4 21.8
2015-Feb-27 05:00N 21°57' W 129°40'0 0.0 21.8
2015-Feb-27 04:00N 21°57' W 129°40'0 0.5 21.8
2015-Feb-27 03:00N 21°58' W 129°40'2 0.6 21.8
2015-Feb-27 00:00N 21°58' W 129°38'0 0.1 21.8
2015-Feb-26 21:00N 21°58' W 129°38'2 0.8 21.8
2015-Feb-26 19:00N 21°59' W 129°37'1 0.1 21.7
2015-Feb-26 15:00N 21°59' W 129°36'1 0.5 21.7
2015-Feb-26 14:00N 21°60' W 129°36'1 0.9 21.7
2015-Feb-26 13:00N 21°60' W 129°35'2 0.5 21.7
2015-Feb-26 10:00N 22°01' W 129°34'2 1.6 21.7
2015-Feb-26 09:00N 21°60' W 129°35'1 0.5 21.7
2015-Feb-26 06:00N 21°60' W 129°34'1 0.8 21.7
2015-Feb-26 05:00N 22°00' W 129°33'0 0.0 21.7
2015-Feb-26 04:00N 22°00' W 129°33'1 0.5 21.8
2015-Feb-26 02:00N 22°00' W 129°32'2 2.3 21.8
2015-Feb-26 01:00N 21°59' W 129°29'0 0.0 21.8
2015-Feb-26 00:00N 21°59' W 129°29'0 0.0 21.8
2015-Feb-25 23:00N 21°59' W 129°29'1 0.3 21.8
2015-Feb-25 21:00N 21°60' W 129°29'3 0.9 21.8
2015-Feb-25 18:00N 22°00' W 129°26'3 2.9 21.8
2015-Feb-25 17:00N 22°01' W 129°23'2 0.5 21.8
2015-Feb-25 13:00N 22°03' W 129°22'0 0.0 21.8
2015-Feb-25 12:00N 22°03' W 129°22'0 0.3 21.8
2015-Feb-25 11:00N 22°03' W 129°21'2 2.4 21.8
2015-Feb-25 10:00N 22°03' W 129°19'0 0.0 21.8
2015-Feb-25 06:00N 22°03' W 129°19'2 2.3 21.8
2015-Feb-25 05:00N 22°03' W 129°16'0 0.0 21.8
2015-Feb-25 04:00N 22°03' W 129°16'1 0.4 21.8
2015-Feb-25 01:00N 22°03' W 129°15'0 0.0 21.8
2015-Feb-24 23:00N 22°03' W 129°15'0 0.0 21.8
2015-Feb-24 22:00N 22°03' W 129°15'0 0.0 21.8
2015-Feb-24 21:00N 22°03' W 129°15'2 0.7 21.8
2015-Feb-24 18:00N 22°03' W 129°13'1 0.5 21.7
2015-Feb-24 15:00N 22°04' W 129°12'0 0.3 21.7
2015-Feb-24 14:00N 22°03' W 129°11'0 0.1 21.7
2015-Feb-24 12:00N 22°04' W 129°11'3 0.5 21.7
2015-Feb-24 06:00N 22°03' W 129°08'0 0.0 21.7
2015-Feb-24 05:00N 22°03' W 129°08'1 0.5 21.7
2015-Feb-24 02:00N 22°04' W 129°07'0 0.0 21.7
2015-Feb-24 01:00N 22°04' W 129°07'0 0.4 21.7
2015-Feb-24 00:00N 22°05' W 129°07'0 0.1 21.8
2015-Feb-23 23:00N 22°05' W 129°07'0 0.0 21.7
2015-Feb-23 22:00N 22°05' W 129°07'2 0.6 21.7
2015-Feb-23 19:00N 22°05' W 129°05'0 0.2 21.6
2015-Feb-23 18:00N 22°05' W 129°05'1 1.1 21.6
2015-Feb-23 17:00N 22°05' W 129°04'1 0.5 21.6
2015-Feb-23 15:00N 22°06' W 129°03'1 0.5 21.6
2015-Feb-23 14:00N 22°06' W 129°03'0 0.0 21.6
2015-Feb-23 13:00N 22°06' W 129°03'   21.6
Track history (hours):
 
Tides and Currents Weather Stations Pressure Air Temp Water Temp Dewpoint Dewpoint Depression Visibility Wind Speed Wind Dir Waves Ship Positions

Drifting buoy 46563

Last reported at 2015-Mar-05 13:00 UTC. Time now 2015-Mar-05 14:41 UTC.
Position N 21°59' W 130°18'.

Water temperature 21.9 ° C

Date/timePositionNaut miles runAvg speedWind from/ knotsBaromVisibWave heightAir tempDewpointWater temp
2015-Mar-05 13:00N 21°59' W 130°18'2 0.5 21.9
2015-Mar-05 10:00N 21°58' W 130°17'1 0.2 21.9
2015-Mar-05 06:00N 21°57' W 130°18'0 0.2 22.0
2015-Mar-05 05:00N 21°57' W 130°18'1 1.0 22.0
2015-Mar-05 04:00N 21°57' W 130°17'1 0.3 22.1
2015-Mar-05 02:00N 21°56' W 130°17'1 0.6 22.1
2015-Mar-05 00:00N 21°55' W 130°17'0 0.0 22.2
2015-Mar-04 23:00N 21°55' W 130°17'0 0.0 22.2
2015-Mar-04 22:00N 21°55' W 130°17'1 0.3 22.2
2015-Mar-04 19:00N 21°55' W 130°16'0 0.3 22.1
2015-Mar-04 18:00N 21°55' W 130°16'0 0.0 22.1
2015-Mar-04 17:00N 21°55' W 130°16'1 0.3 22.1
2015-Mar-04 14:00N 21°56' W 130°15'0 0.0 22.1
2015-Mar-04 12:00N 21°56' W 130°15'0 0.1 22.1
2015-Mar-04 11:00N 21°55' W 130°15'1 0.7 22.1
2015-Mar-04 09:00N 21°55' W 130°14'0 0.1 22.1
2015-Mar-04 06:00N 21°55' W 130°14'0 0.3 22.1
2015-Mar-04 05:00N 21°55' W 130°14'0 0.0 22.2
2015-Mar-04 03:00N 21°55' W 130°14'0 0.0 22.2
2015-Mar-04 02:00N 21°55' W 130°14'0 0.5 22.2
2015-Mar-04 01:00N 21°55' W 130°14'0 0.4 22.2
2015-Mar-04 00:00N 21°56' W 130°15'0 0.1 22.2
2015-Mar-03 22:00N 21°55' W 130°15'1 0.2 22.2
2015-Mar-03 19:00N 21°55' W 130°14'0 0.1 22.2
2015-Mar-03 18:00N 21°55' W 130°14'0 0.0 22.2
2015-Mar-03 17:00N 21°55' W 130°14'1 0.5 22.2
2015-Mar-03 15:00N 21°55' W 130°13'0 0.3 22.2
2015-Mar-03 14:00N 21°55' W 130°13'0 0.0 22.2
2015-Mar-03 13:00N 21°55' W 130°13'0 0.0 22.2
2015-Mar-03 12:00N 21°55' W 130°13'1 0.9 22.2
2015-Mar-03 11:00N 21°55' W 130°12'0 0.0 22.2
2015-Mar-03 09:00N 21°55' W 130°12'0 0.0 22.2
2015-Mar-03 06:00N 21°55' W 130°12'1 0.7 22.2
2015-Mar-03 05:00N 21°55' W 130°11'0 0.2 22.2
2015-Mar-03 03:00N 21°56' W 130°11'1 0.3 22.2
2015-Mar-03 01:00N 21°56' W 130°12'0 0.1 22.1
2015-Mar-03 00:00N 21°56' W 130°12'0 0.0 22.1
2015-Mar-02 23:00N 21°56' W 130°12'0 0.0 22.1
2015-Mar-02 22:00N 21°56' W 130°12'1 0.2 22.1
2015-Mar-02 19:00N 21°55' W 130°13'0 0.0 22.1
2015-Mar-02 18:00N 21°55' W 130°13'2 1.9 22.1
2015-Mar-02 17:00N 21°54' W 130°11'0 0.0 22.1
2015-Mar-02 15:00N 21°54' W 130°11'1 0.9 22.0
2015-Mar-02 14:00N 21°53' W 130°11'1 1.0 22.1
2015-Mar-02 13:00N 21°53' W 130°09'1 0.6 22.1
2015-Mar-02 11:00N 21°52' W 130°09'1 0.7 22.1
2015-Mar-02 10:00N 21°52' W 130°09'1 0.7 22.1
2015-Mar-02 09:00N 21°52' W 130°09'1 0.4 22.1
2015-Mar-02 05:00N 21°51' W 130°07'1 0.5 22.1
2015-Mar-02 04:00N 21°51' W 130°07'1 1.1 22.1
2015-Mar-02 03:00N 21°51' W 130°06'1 0.4 22.1
2015-Mar-02 00:00N 21°51' W 130°05'1 1.3 22.1
2015-Mar-01 23:00N 21°51' W 130°03'1 0.4 22.1
2015-Mar-01 21:00N 21°51' W 130°02'0 0.0 22.1
2015-Mar-01 20:00N 21°51' W 130°02'1 0.7 22.1
2015-Mar-01 18:00N 21°52' W 130°01'1 0.6 22.0
2015-Mar-01 16:00N 21°52' W 129°60'0 0.0 22.0
2015-Mar-01 15:45N 21°52' W 129°60'0 0.1 22.0
2015-Mar-01 14:00N 21°52' W 129°60'1 0.5 22.0
2015-Mar-01 13:00N 21°52' W 129°59'2 0.5 22.0
2015-Mar-01 09:00N 21°52' W 129°57'0 0.0 22.0
2015-Mar-01 06:00N 21°52' W 129°57'2 0.3 22.0
2015-Mar-01 00:00N 21°52' W 129°55'1 1.3 22.1
2015-Feb-28 23:00N 21°52' W 129°54'0 0.0 22.1
2015-Feb-28 21:00N 21°52' W 129°54'1 0.9 22.0
2015-Feb-28 20:00N 21°52' W 129°53'0 0.1 22.0
2015-Feb-28 19:00N 21°52' W 129°53'1 0.3 21.8
2015-Feb-28 17:00N 21°53' W 129°52'2 0.6 21.8
2015-Feb-28 14:00N 21°53' W 129°51'1 0.3 21.8
2015-Feb-28 10:00N 21°53' W 129°49'1 0.3 21.8
2015-Feb-28 06:00N 21°54' W 129°48'0 0.5 21.8
2015-Feb-28 05:00N 21°54' W 129°48'1 0.5 21.8
2015-Feb-28 04:00N 21°54' W 129°47'2 0.3 21.8
2015-Feb-27 23:00N 21°55' W 129°46'1 0.2 21.8
2015-Feb-27 18:00N 21°56' W 129°45'0 0.0 21.7
2015-Feb-27 17:00N 21°56' W 129°45'1 0.5 21.8
2015-Feb-27 15:00N 21°57' W 129°44'0 0.4 21.7
2015-Feb-27 14:00N 21°57' W 129°44'0 0.3 21.7
2015-Feb-27 13:00N 21°57' W 129°44'1 0.7 21.7
2015-Feb-27 12:00N 21°57' W 129°43'2 0.8 21.7
2015-Feb-27 10:00N 21°57' W 129°42'0 0.0 21.8
2015-Feb-27 07:00N 21°57' W 129°42'0 0.1 21.8
2015-Feb-27 06:00N 21°57' W 129°42'1 1.4 21.8
2015-Feb-27 05:00N 21°57' W 129°40'0 0.0 21.8
2015-Feb-27 04:00N 21°57' W 129°40'0 0.5 21.8
2015-Feb-27 03:00N 21°58' W 129°40'2 0.6 21.8
2015-Feb-27 00:00N 21°58' W 129°38'0 0.1 21.8
2015-Feb-26 21:00N 21°58' W 129°38'2 0.8 21.8
2015-Feb-26 19:00N 21°59' W 129°37'1 0.1 21.7
2015-Feb-26 15:00N 21°59' W 129°36'1 0.5 21.7
2015-Feb-26 14:00N 21°60' W 129°36'1 0.9 21.7
2015-Feb-26 13:00N 21°60' W 129°35'2 0.5 21.7
2015-Feb-26 10:00N 22°01' W 129°34'2 1.6 21.7
2015-Feb-26 09:00N 21°60' W 129°35'1 0.5 21.7
2015-Feb-26 06:00N 21°60' W 129°34'1 0.8 21.7
2015-Feb-26 05:00N 22°00' W 129°33'0 0.0 21.7
2015-Feb-26 04:00N 22°00' W 129°33'1 0.5 21.8
2015-Feb-26 02:00N 22°00' W 129°32'2 2.3 21.8
2015-Feb-26 01:00N 21°59' W 129°29'0 0.0 21.8
2015-Feb-26 00:00N 21°59' W 129°29'0 0.0 21.8
2015-Feb-25 23:00N 21°59' W 129°29'1 0.3 21.8
2015-Feb-25 21:00N 21°60' W 129°29'3 0.9 21.8
2015-Feb-25 18:00N 22°00' W 129°26'3 2.9 21.8
2015-Feb-25 17:00N 22°01' W 129°23'2 0.5 21.8
2015-Feb-25 13:00N 22°03' W 129°22'0 0.0 21.8
2015-Feb-25 12:00N 22°03' W 129°22'0 0.3 21.8
2015-Feb-25 11:00N 22°03' W 129°21'2 2.4 21.8
2015-Feb-25 10:00N 22°03' W 129°19'0 0.0 21.8
2015-Feb-25 06:00N 22°03' W 129°19'2 2.3 21.8
2015-Feb-25 05:00N 22°03' W 129°16'0 0.0 21.8
2015-Feb-25 04:00N 22°03' W 129°16'1 0.4 21.8
2015-Feb-25 01:00N 22°03' W 129°15'0 0.0 21.8
2015-Feb-24 23:00N 22°03' W 129°15'0 0.0 21.8
2015-Feb-24 22:00N 22°03' W 129°15'0 0.0 21.8
2015-Feb-24 21:00N 22°03' W 129°15'2 0.7 21.8
2015-Feb-24 18:00N 22°03' W 129°13'1 0.5 21.7
2015-Feb-24 15:00N 22°04' W 129°12'0 0.3 21.7
2015-Feb-24 14:00N 22°03' W 129°11'0 0.1 21.7
2015-Feb-24 12:00N 22°04' W 129°11'3 0.5 21.7
2015-Feb-24 06:00N 22°03' W 129°08'0 0.0 21.7
2015-Feb-24 05:00N 22°03' W 129°08'1 0.5 21.7
2015-Feb-24 02:00N 22°04' W 129°07'0 0.0 21.7
2015-Feb-24 01:00N 22°04' W 129°07'0 0.4 21.7
2015-Feb-24 00:00N 22°05' W 129°07'0 0.1 21.8
2015-Feb-23 23:00N 22°05' W 129°07'0 0.0 21.7
2015-Feb-23 22:00N 22°05' W 129°07'2 0.6 21.7
2015-Feb-23 19:00N 22°05' W 129°05'0 0.2 21.6
2015-Feb-23 18:00N 22°05' W 129°05'1 1.1 21.6
2015-Feb-23 17:00N 22°05' W 129°04'1 0.5 21.6
2015-Feb-23 15:00N 22°06' W 129°03'1 0.5 21.6
2015-Feb-23 14:00N 22°06' W 129°03'0 0.0 21.6
2015-Feb-23 13:00N 22°06' W 129°03'   21.6

Dump ship's entire track history